sensor_id;sensor_type;location;lat;lon;timestamp;P1;durP1;ratioP1;P2;durP2;ratioP2
7571;SDS011;3827;49.928;8.548;2023-11-22T00:00:45;1.13;;;1.10;;
7571;SDS011;3827;49.928;8.548;2023-11-22T00:03:12;1.52;;;1.42;;
7571;SDS011;3827;49.928;8.548;2023-11-22T00:05:39;1.20;;;1.10;;
7571;SDS011;3827;49.928;8.548;2023-11-22T00:08:05;2.28;;;1.30;;
7571;SDS011;3827;49.928;8.548;2023-11-22T00:10:32;1.50;;;1.30;;
7571;SDS011;3827;49.928;8.548;2023-11-22T00:12:59;1.95;;;1.40;;
7571;SDS011;3827;49.928;8.548;2023-11-22T00:15:26;1.40;;;1.30;;
7571;SDS011;3827;49.928;8.548;2023-11-22T00:17:54;1.40;;;1.30;;
7571;SDS011;3827;49.928;8.548;2023-11-22T00:20:22;1.70;;;1.30;;
7571;SDS011;3827;49.928;8.548;2023-11-22T00:22:49;1.60;;;1.48;;
7571;SDS011;3827;49.928;8.548;2023-11-22T00:25:16;1.42;;;1.33;;
7571;SDS011;3827;49.928;8.548;2023-11-22T00:27:44;2.20;;;1.50;;
7571;SDS011;3827;49.928;8.548;2023-11-22T00:30:12;1.38;;;1.27;;
7571;SDS011;3827;49.928;8.548;2023-11-22T00:32:39;1.48;;;1.30;;
7571;SDS011;3827;49.928;8.548;2023-11-22T00:35:08;2.20;;;1.58;;
7571;SDS011;3827;49.928;8.548;2023-11-22T00:37:35;1.60;;;1.50;;
7571;SDS011;3827;49.928;8.548;2023-11-22T00:40:02;2.00;;;1.90;;
7571;SDS011;3827;49.928;8.548;2023-11-22T00:42:35;1.70;;;1.60;;
7571;SDS011;3827;49.928;8.548;2023-11-22T00:45:02;1.90;;;1.77;;
7571;SDS011;3827;49.928;8.548;2023-11-22T00:47:30;2.20;;;2.00;;
7571;SDS011;3827;49.928;8.548;2023-11-22T00:49:58;2.07;;;1.87;;
7571;SDS011;3827;49.928;8.548;2023-11-22T00:52:26;2.33;;;2.10;;
7571;SDS011;3827;49.928;8.548;2023-11-22T00:54:52;2.10;;;1.90;;
7571;SDS011;3827;49.928;8.548;2023-11-22T00:57:19;2.30;;;2.10;;
7571;SDS011;3827;49.928;8.548;2023-11-22T00:59:46;2.20;;;2.00;;
7571;SDS011;3827;49.928;8.548;2023-11-22T01:02:13;2.70;;;2.00;;
7571;SDS011;3827;49.928;8.548;2023-11-22T01:04:39;3.20;;;2.30;;
7571;SDS011;3827;49.928;8.548;2023-11-22T01:07:06;2.42;;;2.22;;
7571;SDS011;3827;49.928;8.548;2023-11-22T01:09:34;2.80;;;2.60;;
7571;SDS011;3827;49.928;8.548;2023-11-22T01:12:01;2.85;;;2.65;;
7571;SDS011;3827;49.928;8.548;2023-11-22T01:14:28;3.30;;;2.80;;
7571;SDS011;3827;49.928;8.548;2023-11-22T01:16:55;3.20;;;2.90;;
7571;SDS011;3827;49.928;8.548;2023-11-22T01:19:21;2.88;;;2.63;;
7571;SDS011;3827;49.928;8.548;2023-11-22T01:21:48;3.22;;;2.92;;
7571;SDS011;3827;49.928;8.548;2023-11-22T01:24:15;3.33;;;3.03;;
7571;SDS011;3827;49.928;8.548;2023-11-22T01:26:43;3.05;;;2.80;;
7571;SDS011;3827;49.928;8.548;2023-11-22T01:29:10;2.92;;;2.72;;
7571;SDS011;3827;49.928;8.548;2023-11-22T01:31:37;3.45;;;3.15;;
7571;SDS011;3827;49.928;8.548;2023-11-22T01:34:04;3.10;;;2.90;;
7571;SDS011;3827;49.928;8.548;2023-11-22T01:36:31;4.28;;;3.22;;
7571;SDS011;3827;49.928;8.548;2023-11-22T01:38:58;3.20;;;3.00;;
7571;SDS011;3827;49.928;8.548;2023-11-22T01:41:25;3.55;;;3.25;;
7571;SDS011;3827;49.928;8.548;2023-11-22T01:43:53;4.35;;;3.70;;
7571;SDS011;3827;49.928;8.548;2023-11-22T01:46:21;3.60;;;3.30;;
7571;SDS011;3827;49.928;8.548;2023-11-22T01:48:50;3.88;;;3.45;;
7571;SDS011;3827;49.928;8.548;2023-11-22T01:51:19;3.70;;;3.40;;
7571;SDS011;3827;49.928;8.548;2023-11-22T01:53:46;3.90;;;3.50;;
7571;SDS011;3827;49.928;8.548;2023-11-22T01:56:13;3.70;;;3.40;;
7571;SDS011;3827;49.928;8.548;2023-11-22T01:58:41;4.43;;;3.70;;
7571;SDS011;3827;49.928;8.548;2023-11-22T02:01:09;4.20;;;3.80;;
7571;SDS011;3827;49.928;8.548;2023-11-22T02:03:38;4.13;;;3.80;;
7571;SDS011;3827;49.928;8.548;2023-11-22T02:06:05;4.45;;;4.05;;
7571;SDS011;3827;49.928;8.548;2023-11-22T02:08:34;5.47;;;4.10;;
7571;SDS011;3827;49.928;8.548;2023-11-22T02:11:01;4.63;;;4.22;;
7571;SDS011;3827;49.928;8.548;2023-11-22T02:13:28;5.05;;;4.40;;
7571;SDS011;3827;49.928;8.548;2023-11-22T02:15:55;4.53;;;4.13;;
7571;SDS011;3827;49.928;8.548;2023-11-22T02:18:25;4.80;;;4.40;;
7571;SDS011;3827;49.928;8.548;2023-11-22T02:20:52;4.78;;;4.38;;
7571;SDS011;3827;49.928;8.548;2023-11-22T02:23:20;4.70;;;4.30;;
7571;SDS011;3827;49.928;8.548;2023-11-22T02:25:47;5.07;;;4.57;;
7571;SDS011;3827;49.928;8.548;2023-11-22T02:28:14;4.90;;;4.50;;
7571;SDS011;3827;49.928;8.548;2023-11-22T02:30:41;5.65;;;4.72;;
7571;SDS011;3827;49.928;8.548;2023-11-22T02:33:08;5.10;;;4.60;;
7571;SDS011;3827;49.928;8.548;2023-11-22T02:35:34;5.03;;;4.60;;
7571;SDS011;3827;49.928;8.548;2023-11-22T02:38:00;5.07;;;4.68;;
7571;SDS011;3827;49.928;8.548;2023-11-22T02:40:28;5.22;;;4.57;;
7571;SDS011;3827;49.928;8.548;2023-11-22T02:42:55;5.05;;;4.57;;
7571;SDS011;3827;49.928;8.548;2023-11-22T02:45:25;4.90;;;4.50;;
7571;SDS011;3827;49.928;8.548;2023-11-22T02:47:53;4.90;;;4.40;;
7571;SDS011;3827;49.928;8.548;2023-11-22T02:50:19;5.47;;;4.68;;
7571;SDS011;3827;49.928;8.548;2023-11-22T02:52:46;5.20;;;4.70;;
7571;SDS011;3827;49.928;8.548;2023-11-22T02:55:13;4.80;;;4.40;;
7571;SDS011;3827;49.928;8.548;2023-11-22T02:57:42;5.00;;;4.50;;
7571;SDS011;3827;49.928;8.548;2023-11-22T03:00:09;4.18;;;3.78;;
7571;SDS011;3827;49.928;8.548;2023-11-22T03:02:38;5.10;;;4.60;;
7571;SDS011;3827;49.928;8.548;2023-11-22T03:05:06;5.30;;;4.45;;
7571;SDS011;3827;49.928;8.548;2023-11-22T03:07:34;4.90;;;4.50;;
7571;SDS011;3827;49.928;8.548;2023-11-22T03:10:01;5.20;;;4.68;;
7571;SDS011;3827;49.928;8.548;2023-11-22T03:12:28;4.50;;;4.10;;
7571;SDS011;3827;49.928;8.548;2023-11-22T03:14:56;5.07;;;4.68;;
7571;SDS011;3827;49.928;8.548;2023-11-22T03:17:25;4.38;;;3.97;;
7571;SDS011;3827;49.928;8.548;2023-11-22T03:19:54;4.82;;;4.07;;
7571;SDS011;3827;49.928;8.548;2023-11-22T03:22:22;5.03;;;4.63;;
7571;SDS011;3827;49.928;8.548;2023-11-22T03:24:48;5.25;;;4.75;;
7571;SDS011;3827;49.928;8.548;2023-11-22T03:27:15;5.55;;;4.97;;
7571;SDS011;3827;49.928;8.548;2023-11-22T03:29:42;5.32;;;4.82;;
7571;SDS011;3827;49.928;8.548;2023-11-22T03:32:09;4.68;;;4.07;;
7571;SDS011;3827;49.928;8.548;2023-11-22T03:34:36;5.10;;;4.60;;
7571;SDS011;3827;49.928;8.548;2023-11-22T03:37:03;5.30;;;4.80;;
7571;SDS011;3827;49.928;8.548;2023-11-22T03:39:30;5.13;;;4.72;;
7571;SDS011;3827;49.928;8.548;2023-11-22T03:41:57;5.22;;;4.78;;
7571;SDS011;3827;49.928;8.548;2023-11-22T03:44:23;4.63;;;4.22;;
7571;SDS011;3827;49.928;8.548;2023-11-22T03:46:50;4.95;;;4.38;;
7571;SDS011;3827;49.928;8.548;2023-11-22T03:49:18;4.28;;;3.90;;
7571;SDS011;3827;49.928;8.548;2023-11-22T03:51:46;4.60;;;4.18;;
7571;SDS011;3827;49.928;8.548;2023-11-22T03:54:13;5.13;;;4.63;;
7571;SDS011;3827;49.928;8.548;2023-11-22T03:56:40;6.38;;;4.78;;
7571;SDS011;3827;49.928;8.548;2023-11-22T03:59:07;5.32;;;4.80;;
7571;SDS011;3827;49.928;8.548;2023-11-22T04:01:34;4.80;;;4.40;;
7571;SDS011;3827;49.928;8.548;2023-11-22T04:04:00;4.43;;;4.03;;
7571;SDS011;3827;49.928;8.548;2023-11-22T04:06:29;4.72;;;4.22;;
7571;SDS011;3827;49.928;8.548;2023-11-22T04:08:58;4.68;;;4.28;;
7571;SDS011;3827;49.928;8.548;2023-11-22T04:11:26;5.25;;;4.60;;
7571;SDS011;3827;49.928;8.548;2023-11-22T04:13:54;4.60;;;4.20;;
7571;SDS011;3827;49.928;8.548;2023-11-22T04:16:21;5.05;;;4.50;;
7571;SDS011;3827;49.928;8.548;2023-11-22T04:18:47;5.10;;;4.63;;
7571;SDS011;3827;49.928;8.548;2023-11-22T04:21:17;5.20;;;4.70;;
7571;SDS011;3827;49.928;8.548;2023-11-22T04:23:45;4.55;;;4.07;;
7571;SDS011;3827;49.928;8.548;2023-11-22T04:26:13;5.10;;;4.60;;
7571;SDS011;3827;49.928;8.548;2023-11-22T04:28:41;4.50;;;4.10;;
7571;SDS011;3827;49.928;8.548;2023-11-22T04:31:08;5.50;;;4.83;;
7571;SDS011;3827;49.928;8.548;2023-11-22T04:33:34;5.35;;;4.68;;
7571;SDS011;3827;49.928;8.548;2023-11-22T04:36:02;4.68;;;4.25;;
7571;SDS011;3827;49.928;8.548;2023-11-22T04:38:29;4.65;;;4.25;;
7571;SDS011;3827;49.928;8.548;2023-11-22T04:40:58;5.35;;;4.15;;
7571;SDS011;3827;49.928;8.548;2023-11-22T04:43:25;4.72;;;3.92;;
7571;SDS011;3827;49.928;8.548;2023-11-22T04:45:51;4.97;;;4.45;;
7571;SDS011;3827;49.928;8.548;2023-11-22T04:48:18;4.60;;;4.20;;
7571;SDS011;3827;49.928;8.548;2023-11-22T04:50:45;4.75;;;4.35;;
7571;SDS011;3827;49.928;8.548;2023-11-22T04:53:11;5.07;;;4.07;;
7571;SDS011;3827;49.928;8.548;2023-11-22T04:55:38;4.18;;;3.78;;
7571;SDS011;3827;49.928;8.548;2023-11-22T04:58:06;5.17;;;3.97;;
7571;SDS011;3827;49.928;8.548;2023-11-22T05:00:33;3.95;;;3.55;;
7571;SDS011;3827;49.928;8.548;2023-11-22T05:03:00;4.80;;;4.23;;
7571;SDS011;3827;49.928;8.548;2023-11-22T05:05:26;5.57;;;4.15;;
7571;SDS011;3827;49.928;8.548;2023-11-22T05:07:53;4.45;;;3.90;;
7571;SDS011;3827;49.928;8.548;2023-11-22T05:10:20;4.43;;;3.67;;
7571;SDS011;3827;49.928;8.548;2023-11-22T05:12:47;4.45;;;3.60;;
7571;SDS011;3827;49.928;8.548;2023-11-22T05:15:15;3.83;;;3.38;;
7571;SDS011;3827;49.928;8.548;2023-11-22T05:17:41;5.20;;;4.00;;
7571;SDS011;3827;49.928;8.548;2023-11-22T05:20:08;5.35;;;4.35;;
7571;SDS011;3827;49.928;8.548;2023-11-22T05:22:36;4.65;;;4.25;;
7571;SDS011;3827;49.928;8.548;2023-11-22T05:25:03;4.40;;;4.00;;
7571;SDS011;3827;49.928;8.548;2023-11-22T05:27:31;4.40;;;4.00;;
7571;SDS011;3827;49.928;8.548;2023-11-22T05:29:58;4.97;;;4.47;;
7571;SDS011;3827;49.928;8.548;2023-11-22T05:32:26;4.80;;;4.40;;
7571;SDS011;3827;49.928;8.548;2023-11-22T05:34:53;5.55;;;5.03;;
7571;SDS011;3827;49.928;8.548;2023-11-22T05:37:20;4.80;;;4.30;;
7571;SDS011;3827;49.928;8.548;2023-11-22T05:39:47;6.72;;;4.97;;
7571;SDS011;3827;49.928;8.548;2023-11-22T05:42:13;5.13;;;4.43;;
7571;SDS011;3827;49.928;8.548;2023-11-22T05:44:40;4.70;;;4.30;;
7571;SDS011;3827;49.928;8.548;2023-11-22T05:47:07;4.90;;;4.40;;
7571;SDS011;3827;49.928;8.548;2023-11-22T05:49:35;5.57;;;4.10;;
7571;SDS011;3827;49.928;8.548;2023-11-22T05:52:02;4.40;;;4.00;;
7571;SDS011;3827;49.928;8.548;2023-11-22T05:54:29;4.45;;;4.05;;
7571;SDS011;3827;49.928;8.548;2023-11-22T05:56:56;5.07;;;4.57;;
7571;SDS011;3827;49.928;8.548;2023-11-22T05:59:23;4.82;;;4.25;;
7571;SDS011;3827;49.928;8.548;2023-11-22T06:01:50;4.82;;;4.00;;
7571;SDS011;3827;49.928;8.548;2023-11-22T06:04:17;4.47;;;3.97;;
7571;SDS011;3827;49.928;8.548;2023-11-22T06:06:45;4.55;;;4.10;;
7571;SDS011;3827;49.928;8.548;2023-11-22T06:09:12;4.17;;;3.77;;
7571;SDS011;3827;49.928;8.548;2023-11-22T06:11:40;6.03;;;4.20;;
7571;SDS011;3827;49.928;8.548;2023-11-22T06:14:07;5.70;;;4.20;;
7571;SDS011;3827;49.928;8.548;2023-11-22T06:16:33;4.97;;;4.15;;
7571;SDS011;3827;49.928;8.548;2023-11-22T06:19:00;5.90;;;4.43;;
7571;SDS011;3827;49.928;8.548;2023-11-22T06:21:27;6.55;;;5.38;;
7571;SDS011;3827;49.928;8.548;2023-11-22T06:23:55;6.30;;;5.40;;
7571;SDS011;3827;49.928;8.548;2023-11-22T06:26:22;5.88;;;4.70;;
7571;SDS011;3827;49.928;8.548;2023-11-22T06:28:49;6.47;;;5.88;;
7571;SDS011;3827;49.928;8.548;2023-11-22T06:31:16;8.52;;;6.07;;
7571;SDS011;3827;49.928;8.548;2023-11-22T06:33:43;5.50;;;4.90;;
7571;SDS011;3827;49.928;8.548;2023-11-22T06:36:10;4.78;;;4.28;;
7571;SDS011;3827;49.928;8.548;2023-11-22T06:38:39;5.65;;;4.18;;
7571;SDS011;3827;49.928;8.548;2023-11-22T06:41:07;4.70;;;4.30;;
7571;SDS011;3827;49.928;8.548;2023-11-22T06:43:34;4.82;;;4.40;;
7571;SDS011;3827;49.928;8.548;2023-11-22T06:46:00;4.72;;;4.28;;
7571;SDS011;3827;49.928;8.548;2023-11-22T06:48:30;5.20;;;4.70;;
7571;SDS011;3827;49.928;8.548;2023-11-22T06:50:57;5.65;;;4.95;;
7571;SDS011;3827;49.928;8.548;2023-11-22T06:53:24;6.22;;;5.13;;
7571;SDS011;3827;49.928;8.548;2023-11-22T06:55:51;5.20;;;4.70;;
7571;SDS011;3827;49.928;8.548;2023-11-22T06:58:19;7.23;;;6.27;;
7571;SDS011;3827;49.928;8.548;2023-11-22T07:00:45;5.80;;;5.25;;
7571;SDS011;3827;49.928;8.548;2023-11-22T07:03:13;5.70;;;4.95;;
7571;SDS011;3827;49.928;8.548;2023-11-22T07:05:40;7.47;;;6.30;;
7571;SDS011;3827;49.928;8.548;2023-11-22T07:08:07;6.18;;;5.57;;
7571;SDS011;3827;49.928;8.548;2023-11-22T07:10:36;5.45;;;4.85;;
7571;SDS011;3827;49.928;8.548;2023-11-22T07:13:03;6.60;;;5.07;;
7571;SDS011;3827;49.928;8.548;2023-11-22T07:15:31;5.00;;;4.50;;
7571;SDS011;3827;49.928;8.548;2023-11-22T07:17:58;4.95;;;4.45;;
7571;SDS011;3827;49.928;8.548;2023-11-22T07:20:23;4.73;;;4.30;;
7571;SDS011;3827;49.928;8.548;2023-11-22T07:22:52;4.57;;;4.15;;
7571;SDS011;3827;49.928;8.548;2023-11-22T07:25:22;4.60;;;4.20;;
7571;SDS011;3827;49.928;8.548;2023-11-22T07:27:50;5.45;;;4.47;;
7571;SDS011;3827;49.928;8.548;2023-11-22T07:30:18;5.63;;;4.35;;
7571;SDS011;3827;49.928;8.548;2023-11-22T07:32:49;5.80;;;3.93;;
7571;SDS011;3827;49.928;8.548;2023-11-22T07:35:16;4.50;;;4.10;;
7571;SDS011;3827;49.928;8.548;2023-11-22T07:37:45;4.35;;;3.95;;
7571;SDS011;3827;49.928;8.548;2023-11-22T07:40:13;4.13;;;3.73;;
7571;SDS011;3827;49.928;8.548;2023-11-22T07:42:40;4.00;;;3.60;;
7571;SDS011;3827;49.928;8.548;2023-11-22T07:45:09;4.97;;;3.60;;
7571;SDS011;3827;49.928;8.548;2023-11-22T07:47:36;4.15;;;3.65;;
7571;SDS011;3827;49.928;8.548;2023-11-22T07:50:08;4.53;;;3.63;;
7571;SDS011;3827;49.928;8.548;2023-11-22T07:52:36;3.95;;;3.60;;
7571;SDS011;3827;49.928;8.548;2023-11-22T07:55:03;4.63;;;3.97;;
7571;SDS011;3827;49.928;8.548;2023-11-22T07:57:33;4.80;;;3.80;;
7571;SDS011;3827;49.928;8.548;2023-11-22T07:59:59;4.45;;;4.05;;
7571;SDS011;3827;49.928;8.548;2023-11-22T08:02:30;4.28;;;3.85;;
7571;SDS011;3827;49.928;8.548;2023-11-22T08:04:56;4.55;;;3.83;;
7571;SDS011;3827;49.928;8.548;2023-11-22T08:07:28;5.13;;;4.20;;
7571;SDS011;3827;49.928;8.548;2023-11-22T08:09:55;4.10;;;3.70;;
7571;SDS011;3827;49.928;8.548;2023-11-22T08:12:21;4.20;;;3.80;;
7571;SDS011;3827;49.928;8.548;2023-11-22T08:14:48;4.53;;;3.95;;
7571;SDS011;3827;49.928;8.548;2023-11-22T08:17:16;5.07;;;4.53;;
7571;SDS011;3827;49.928;8.548;2023-11-22T08:19:44;5.47;;;3.60;;
7571;SDS011;3827;49.928;8.548;2023-11-22T08:22:13;4.15;;;3.75;;
7571;SDS011;3827;49.928;8.548;2023-11-22T08:24:41;4.43;;;3.63;;
7571;SDS011;3827;49.928;8.548;2023-11-22T08:27:09;3.58;;;3.28;;
7571;SDS011;3827;49.928;8.548;2023-11-22T08:29:37;4.57;;;3.47;;
7571;SDS011;3827;49.928;8.548;2023-11-22T08:32:04;3.70;;;3.30;;
7571;SDS011;3827;49.928;8.548;2023-11-22T08:34:31;4.15;;;3.28;;
7571;SDS011;3827;49.928;8.548;2023-11-22T08:36:58;3.40;;;3.10;;
7571;SDS011;3827;49.928;8.548;2023-11-22T08:39:25;3.63;;;3.28;;
7571;SDS011;3827;49.928;8.548;2023-11-22T08:41:53;3.55;;;3.20;;
7571;SDS011;3827;49.928;8.548;2023-11-22T08:44:20;3.72;;;3.00;;
7571;SDS011;3827;49.928;8.548;2023-11-22T08:46:48;3.72;;;3.40;;
7571;SDS011;3827;49.928;8.548;2023-11-22T08:49:14;3.50;;;3.20;;
7571;SDS011;3827;49.928;8.548;2023-11-22T08:51:41;3.42;;;3.00;;
7571;SDS011;3827;49.928;8.548;2023-11-22T08:54:08;3.83;;;3.33;;
7571;SDS011;3827;49.928;8.548;2023-11-22T08:56:35;3.27;;;2.90;;
7571;SDS011;3827;49.928;8.548;2023-11-22T08:59:03;4.18;;;3.25;;
7571;SDS011;3827;49.928;8.548;2023-11-22T09:01:30;3.25;;;2.95;;
7571;SDS011;3827;49.928;8.548;2023-11-22T09:03:57;3.40;;;3.10;;
7571;SDS011;3827;49.928;8.548;2023-11-22T09:06:23;3.45;;;3.15;;
7571;SDS011;3827;49.928;8.548;2023-11-22T09:08:50;4.10;;;2.75;;
7571;SDS011;3827;49.928;8.548;2023-11-22T09:11:17;3.33;;;2.83;;
7571;SDS011;3827;49.928;8.548;2023-11-22T09:13:47;3.33;;;3.00;;
7571;SDS011;3827;49.928;8.548;2023-11-22T09:16:16;3.53;;;2.58;;
7571;SDS011;3827;49.928;8.548;2023-11-22T09:18:44;3.00;;;2.67;;
7571;SDS011;3827;49.928;8.548;2023-11-22T09:21:11;3.50;;;2.90;;
7571;SDS011;3827;49.928;8.548;2023-11-22T09:23:38;3.38;;;3.08;;
7571;SDS011;3827;49.928;8.548;2023-11-22T09:26:04;3.40;;;3.00;;
7571;SDS011;3827;49.928;8.548;2023-11-22T09:28:31;3.50;;;3.17;;
7571;SDS011;3827;49.928;8.548;2023-11-22T09:30:57;3.22;;;2.92;;
7571;SDS011;3827;49.928;8.548;2023-11-22T09:33:32;3.10;;;2.80;;
7571;SDS011;3827;49.928;8.548;2023-11-22T09:35:59;3.42;;;3.13;;
7571;SDS011;3827;49.928;8.548;2023-11-22T09:38:29;3.78;;;3.03;;
7571;SDS011;3827;49.928;8.548;2023-11-22T09:40:55;3.13;;;2.83;;
7571;SDS011;3827;49.928;8.548;2023-11-22T09:43:24;3.00;;;2.70;;
7571;SDS011;3827;49.928;8.548;2023-11-22T09:45:54;3.40;;;3.08;;
7571;SDS011;3827;49.928;8.548;2023-11-22T09:48:21;3.40;;;3.10;;
7571;SDS011;3827;49.928;8.548;2023-11-22T09:50:50;3.23;;;2.93;;
7571;SDS011;3827;49.928;8.548;2023-11-22T09:53:25;3.13;;;2.78;;
7571;SDS011;3827;49.928;8.548;2023-11-22T09:55:57;3.35;;;2.60;;
7571;SDS011;3827;49.928;8.548;2023-11-22T09:58:24;3.58;;;3.25;;
7571;SDS011;3827;49.928;8.548;2023-11-22T10:00:54;3.38;;;3.00;;
7571;SDS011;3827;49.928;8.548;2023-11-22T10:03:21;4.20;;;2.75;;
7571;SDS011;3827;49.928;8.548;2023-11-22T10:05:51;2.72;;;2.53;;
7571;SDS011;3827;49.928;8.548;2023-11-22T10:08:18;3.28;;;2.97;;
7571;SDS011;3827;49.928;8.548;2023-11-22T10:10:47;2.83;;;2.50;;
7571;SDS011;3827;49.928;8.548;2023-11-22T10:13:16;2.90;;;2.70;;
7571;SDS011;3827;49.928;8.548;2023-11-22T10:15:45;3.15;;;2.85;;
7571;SDS011;3827;49.928;8.548;2023-11-22T10:18:13;3.60;;;2.90;;
7571;SDS011;3827;49.928;8.548;2023-11-22T10:20:40;3.95;;;3.00;;
7571;SDS011;3827;49.928;8.548;2023-11-22T10:23:09;3.90;;;3.22;;
7571;SDS011;3827;49.928;8.548;2023-11-22T10:25:43;3.05;;;2.75;;
7571;SDS011;3827;49.928;8.548;2023-11-22T10:28:10;3.63;;;3.20;;
7571;SDS011;3827;49.928;8.548;2023-11-22T10:30:37;3.47;;;2.80;;
7571;SDS011;3827;49.928;8.548;2023-11-22T10:33:05;4.75;;;3.20;;
7571;SDS011;3827;49.928;8.548;2023-11-22T10:35:32;3.55;;;3.15;;
7571;SDS011;3827;49.928;8.548;2023-11-22T10:37:59;3.42;;;3.13;;
7571;SDS011;3827;49.928;8.548;2023-11-22T10:40:29;2.90;;;2.70;;
7571;SDS011;3827;49.928;8.548;2023-11-22T10:42:56;5.40;;;2.95;;
7571;SDS011;3827;49.928;8.548;2023-11-22T10:45:23;3.20;;;2.90;;
7571;SDS011;3827;49.928;8.548;2023-11-22T10:47:54;3.40;;;2.92;;
7571;SDS011;3827;49.928;8.548;2023-11-22T10:50:22;3.20;;;2.90;;
7571;SDS011;3827;49.928;8.548;2023-11-22T10:52:50;3.20;;;2.80;;
7571;SDS011;3827;49.928;8.548;2023-11-22T10:55:20;3.20;;;2.72;;
7571;SDS011;3827;49.928;8.548;2023-11-22T10:57:50;5.28;;;4.32;;
7571;SDS011;3827;49.928;8.548;2023-11-22T11:00:19;5.55;;;4.95;;
7571;SDS011;3827;49.928;8.548;2023-11-22T11:02:49;3.67;;;3.38;;
7571;SDS011;3827;49.928;8.548;2023-11-22T11:05:21;5.15;;;3.15;;
7571;SDS011;3827;49.928;8.548;2023-11-22T11:07:55;4.25;;;3.30;;
7571;SDS011;3827;49.928;8.548;2023-11-22T11:10:26;3.10;;;2.90;;
7571;SDS011;3827;49.928;8.548;2023-11-22T11:12:55;4.28;;;3.47;;
7571;SDS011;3827;49.928;8.548;2023-11-22T11:15:23;3.05;;;2.80;;
7571;SDS011;3827;49.928;8.548;2023-11-22T11:17:49;3.70;;;3.40;;
7571;SDS011;3827;49.928;8.548;2023-11-22T11:20:16;3.33;;;2.80;;
7571;SDS011;3827;49.928;8.548;2023-11-22T11:22:46;2.78;;;2.58;;
7571;SDS011;3827;49.928;8.548;2023-11-22T11:25:14;3.60;;;3.30;;
7571;SDS011;3827;49.928;8.548;2023-11-22T11:27:43;3.20;;;3.00;;
7571;SDS011;3827;49.928;8.548;2023-11-22T11:33:16;3.90;;;3.50;;
7571;SDS011;3827;49.928;8.548;2023-11-22T11:35:46;3.08;;;2.80;;
7571;SDS011;3827;49.928;8.548;2023-11-22T11:38:14;3.05;;;2.65;;
7571;SDS011;3827;49.928;8.548;2023-11-22T11:40:42;3.00;;;2.70;;
7571;SDS011;3827;49.928;8.548;2023-11-22T11:43:09;2.85;;;2.65;;
7571;SDS011;3827;49.928;8.548;2023-11-22T11:45:38;3.10;;;2.80;;
7571;SDS011;3827;49.928;8.548;2023-11-22T11:48:10;3.10;;;2.80;;
7571;SDS011;3827;49.928;8.548;2023-11-22T11:50:40;3.63;;;3.03;;
7571;SDS011;3827;49.928;8.548;2023-11-22T11:53:07;3.17;;;2.87;;
7571;SDS011;3827;49.928;8.548;2023-11-22T11:55:35;3.20;;;2.83;;
7571;SDS011;3827;49.928;8.548;2023-11-22T11:58:04;3.30;;;3.00;;
7571;SDS011;3827;49.928;8.548;2023-11-22T12:00:34;3.67;;;3.00;;
7571;SDS011;3827;49.928;8.548;2023-11-22T12:03:05;3.47;;;3.05;;
7571;SDS011;3827;49.928;8.548;2023-11-22T12:05:32;2.90;;;2.70;;
7571;SDS011;3827;49.928;8.548;2023-11-22T12:08:00;2.80;;;2.60;;
7571;SDS011;3827;49.928;8.548;2023-11-22T12:10:27;2.80;;;2.60;;
7571;SDS011;3827;49.928;8.548;2023-11-22T12:12:54;4.67;;;3.00;;
7571;SDS011;3827;49.928;8.548;2023-11-22T12:15:21;3.30;;;2.75;;
7571;SDS011;3827;49.928;8.548;2023-11-22T12:17:48;5.35;;;3.97;;
7571;SDS011;3827;49.928;8.548;2023-11-22T12:20:17;3.30;;;3.00;;
7571;SDS011;3827;49.928;8.548;2023-11-22T12:22:46;3.40;;;2.78;;
7571;SDS011;3827;49.928;8.548;2023-11-22T12:25:14;3.00;;;2.80;;
7571;SDS011;3827;49.928;8.548;2023-11-22T12:27:42;2.80;;;2.60;;
7571;SDS011;3827;49.928;8.548;2023-11-22T12:30:26;3.10;;;2.80;;
7571;SDS011;3827;49.928;8.548;2023-11-22T12:32:54;2.78;;;2.58;;
7571;SDS011;3827;49.928;8.548;2023-11-22T12:35:21;3.13;;;2.75;;
7571;SDS011;3827;49.928;8.548;2023-11-22T12:37:48;3.63;;;2.80;;
7571;SDS011;3827;49.928;8.548;2023-11-22T12:40:19;3.20;;;2.80;;
7571;SDS011;3827;49.928;8.548;2023-11-22T12:42:47;3.33;;;3.00;;
7571;SDS011;3827;49.928;8.548;2023-11-22T12:45:18;3.13;;;2.88;;
7571;SDS011;3827;49.928;8.548;2023-11-22T12:47:46;6.25;;;4.70;;
7571;SDS011;3827;49.928;8.548;2023-11-22T12:50:28;4.53;;;4.13;;
7571;SDS011;3827;49.928;8.548;2023-11-22T12:52:56;3.70;;;3.40;;
7571;SDS011;3827;49.928;8.548;2023-11-22T12:55:24;3.53;;;3.22;;
7571;SDS011;3827;49.928;8.548;2023-11-22T12:57:57;3.42;;;3.13;;
7571;SDS011;3827;49.928;8.548;2023-11-22T13:00:27;3.37;;;2.67;;
7571;SDS011;3827;49.928;8.548;2023-11-22T13:02:54;2.80;;;2.60;;
7571;SDS011;3827;49.928;8.548;2023-11-22T13:05:22;3.55;;;3.00;;
7571;SDS011;3827;49.928;8.548;2023-11-22T13:07:49;3.33;;;3.03;;
7571;SDS011;3827;49.928;8.548;2023-11-22T13:10:16;3.78;;;3.30;;
7571;SDS011;3827;49.928;8.548;2023-11-22T13:12:51;3.17;;;2.75;;
7571;SDS011;3827;49.928;8.548;2023-11-22T13:15:19;3.50;;;2.90;;
7571;SDS011;3827;49.928;8.548;2023-11-22T13:17:48;2.90;;;2.70;;
7571;SDS011;3827;49.928;8.548;2023-11-22T13:20:15;3.80;;;3.40;;
7571;SDS011;3827;49.928;8.548;2023-11-22T13:22:44;3.15;;;2.85;;
7571;SDS011;3827;49.928;8.548;2023-11-22T13:25:12;3.00;;;2.80;;
7571;SDS011;3827;49.928;8.548;2023-11-22T13:27:39;3.85;;;2.85;;
7571;SDS011;3827;49.928;8.548;2023-11-22T13:30:08;2.95;;;2.72;;
7571;SDS011;3827;49.928;8.548;2023-11-22T13:32:36;3.90;;;3.00;;
7571;SDS011;3827;49.928;8.548;2023-11-22T13:35:06;3.55;;;3.25;;
7571;SDS011;3827;49.928;8.548;2023-11-22T13:37:39;2.90;;;2.60;;
7571;SDS011;3827;49.928;8.548;2023-11-22T13:40:08;3.20;;;2.90;;
7571;SDS011;3827;49.928;8.548;2023-11-22T13:42:39;4.20;;;3.58;;
7571;SDS011;3827;49.928;8.548;2023-11-22T13:45:09;3.07;;;2.83;;
7571;SDS011;3827;49.928;8.548;2023-11-22T13:47:36;3.20;;;2.90;;
7571;SDS011;3827;49.928;8.548;2023-11-22T13:50:03;3.20;;;2.90;;
7571;SDS011;3827;49.928;8.548;2023-11-22T13:52:31;3.97;;;3.58;;
7571;SDS011;3827;49.928;8.548;2023-11-22T13:54:58;4.00;;;3.70;;
7571;SDS011;3827;49.928;8.548;2023-11-22T13:57:26;3.33;;;3.03;;
7571;SDS011;3827;49.928;8.548;2023-11-22T13:59:53;2.95;;;2.65;;
7571;SDS011;3827;49.928;8.548;2023-11-22T14:02:21;2.88;;;2.67;;
7571;SDS011;3827;49.928;8.548;2023-11-22T14:04:48;3.28;;;3.00;;
7571;SDS011;3827;49.928;8.548;2023-11-22T14:07:15;3.17;;;2.88;;
7571;SDS011;3827;49.928;8.548;2023-11-22T14:09:42;3.78;;;3.33;;
7571;SDS011;3827;49.928;8.548;2023-11-22T14:12:11;3.00;;;2.70;;
7571;SDS011;3827;49.928;8.548;2023-11-22T14:14:38;3.43;;;3.13;;
7571;SDS011;3827;49.928;8.548;2023-11-22T14:17:05;7.50;;;5.80;;
7571;SDS011;3827;49.928;8.548;2023-11-22T14:19:33;3.70;;;3.25;;
7571;SDS011;3827;49.928;8.548;2023-11-22T14:22:00;4.13;;;3.70;;
7571;SDS011;3827;49.928;8.548;2023-11-22T14:24:27;5.82;;;3.80;;
7571;SDS011;3827;49.928;8.548;2023-11-22T14:26:55;4.07;;;3.10;;
7571;SDS011;3827;49.928;8.548;2023-11-22T14:29:25;3.30;;;2.97;;
7571;SDS011;3827;49.928;8.548;2023-11-22T14:31:52;3.05;;;2.85;;
7571;SDS011;3827;49.928;8.548;2023-11-22T14:34:19;3.05;;;2.75;;
7571;SDS011;3827;49.928;8.548;2023-11-22T14:36:47;3.47;;;3.17;;
7571;SDS011;3827;49.928;8.548;2023-11-22T14:39:14;2.80;;;2.60;;
7571;SDS011;3827;49.928;8.548;2023-11-22T14:41:41;2.78;;;2.58;;
7571;SDS011;3827;49.928;8.548;2023-11-22T14:44:10;3.40;;;2.92;;
7571;SDS011;3827;49.928;8.548;2023-11-22T14:46:37;2.80;;;2.60;;
7571;SDS011;3827;49.928;8.548;2023-11-22T14:49:03;3.10;;;2.80;;
7571;SDS011;3827;49.928;8.548;2023-11-22T14:51:31;3.10;;;2.90;;
7571;SDS011;3827;49.928;8.548;2023-11-22T14:54:00;3.30;;;2.80;;
7571;SDS011;3827;49.928;8.548;2023-11-22T14:56:27;3.95;;;3.17;;
7571;SDS011;3827;49.928;8.548;2023-11-22T14:58:54;3.17;;;2.88;;
7571;SDS011;3827;49.928;8.548;2023-11-22T15:01:20;2.97;;;2.70;;
7571;SDS011;3827;49.928;8.548;2023-11-22T15:03:48;3.40;;;3.10;;
7571;SDS011;3827;49.928;8.548;2023-11-22T15:06:17;3.10;;;2.85;;
7571;SDS011;3827;49.928;8.548;2023-11-22T15:08:44;3.50;;;2.90;;
7571;SDS011;3827;49.928;8.548;2023-11-22T15:11:12;3.05;;;2.75;;
7571;SDS011;3827;49.928;8.548;2023-11-22T15:13:40;3.55;;;3.00;;
7571;SDS011;3827;49.928;8.548;2023-11-22T15:16:07;3.75;;;3.13;;
7571;SDS011;3827;49.928;8.548;2023-11-22T15:18:34;3.45;;;3.15;;
7571;SDS011;3827;49.928;8.548;2023-11-22T15:21:01;3.92;;;3.38;;